createdAt,value
2016-11-13T00:00:24.247Z,1007.45
2016-11-13T00:01:24.260Z,1007.42
2016-11-13T00:02:24.274Z,1007.47
2016-11-13T00:03:24.285Z,1007.47
2016-11-13T00:04:24.297Z,1007.49
2016-11-13T00:05:24.306Z,1007.47
2016-11-13T00:06:24.319Z,1007.49
2016-11-13T00:07:24.326Z,1007.47
2016-11-13T00:08:24.341Z,1007.47
2016-11-13T00:09:24.355Z,1007.49
2016-11-13T00:10:24.362Z,1007.51
2016-11-13T00:11:24.378Z,1007.5
2016-11-13T00:12:24.389Z,1007.54
2016-11-13T00:13:24.400Z,1007.57
2016-11-13T00:14:24.411Z,1007.56
2016-11-13T00:15:24.426Z,1007.57
2016-11-13T00:16:24.433Z,1007.56
2016-11-13T00:17:24.447Z,1007.61
2016-11-13T00:18:24.457Z,1007.57
2016-11-13T00:19:24.472Z,1007.56
2016-11-13T00:20:24.483Z,1007.54
2016-11-13T00:21:24.493Z,1007.55
2016-11-13T00:22:24.502Z,1007.56
2016-11-13T00:23:24.519Z,1007.57
2016-11-13T00:24:24.530Z,1007.6
2016-11-13T00:25:24.538Z,1007.54
2016-11-13T00:26:24.552Z,1007.58
2016-11-13T00:27:24.563Z,1007.58
2016-11-13T00:28:24.572Z,1007.6
2016-11-13T00:29:24.588Z,1007.56
2016-11-13T00:30:24.597Z,1007.55
2016-11-13T00:31:24.607Z,1007.56
2016-11-13T00:32:24.622Z,1007.5
2016-11-13T00:33:24.631Z,1007.48
2016-11-13T00:34:24.644Z,1007.54
2016-11-13T00:35:24.657Z,1007.5
2016-11-13T00:36:24.668Z,1007.52
2016-11-13T00:37:24.677Z,1007.53
2016-11-13T00:38:24.687Z,1007.52
2016-11-13T00:39:24.699Z,1007.51
2016-11-13T00:40:24.716Z,1007.55
2016-11-13T00:41:24.727Z,1007.53
2016-11-13T00:42:24.734Z,1007.5
2016-11-13T00:43:24.747Z,1007.47
2016-11-13T00:44:24.760Z,1007.47
2016-11-13T00:45:24.772Z,1007.49
2016-11-13T00:46:24.782Z,1007.52
2016-11-13T00:47:24.794Z,1007.52
2016-11-13T00:48:24.805Z,1007.5
2016-11-13T00:49:24.817Z,1007.5
2016-11-13T00:50:24.830Z,1007.47
2016-11-13T00:51:24.841Z,1007.47
2016-11-13T00:52:24.857Z,1007.44
2016-11-13T00:53:24.862Z,1007.4
2016-11-13T00:54:24.875Z,1007.46
2016-11-13T00:55:24.887Z,1007.47
2016-11-13T00:56:24.900Z,1007.4
2016-11-13T00:57:24.912Z,1007.44
2016-11-13T00:58:24.925Z,1007.42
2016-11-13T00:59:24.934Z,1007.47
2016-11-13T01:00:24.954Z,1007.4
2016-11-13T01:01:24.958Z,1007.44
2016-11-13T01:02:24.969Z,1007.45
2016-11-13T01:03:24.982Z,1007.48
2016-11-13T01:04:24.996Z,1007.44
2016-11-13T01:05:25.005Z,1007.51
2016-11-13T01:06:25.014Z,1007.52
2016-11-13T01:07:25.030Z,1007.52
2016-11-13T01:08:25.036Z,1007.52
2016-11-13T01:09:25.050Z,1007.5
2016-11-13T01:10:25.066Z,1007.51
2016-11-13T01:11:25.071Z,1007.56
2016-11-13T01:12:25.087Z,1007.55
2016-11-13T01:13:25.096Z,1007.55
2016-11-13T01:14:25.111Z,1007.52
2016-11-13T01:15:25.123Z,1007.51
2016-11-13T01:16:25.134Z,1007.53
2016-11-13T01:17:25.145Z,1007.51
2016-11-13T01:18:25.155Z,1007.48
2016-11-13T01:19:25.168Z,1007.47
2016-11-13T01:20:25.178Z,1007.47
2016-11-13T01:21:25.192Z,1007.42
2016-11-13T01:22:25.205Z,1007.43
2016-11-13T01:23:25.211Z,1007.36
2016-11-13T01:24:25.227Z,1007.32
2016-11-13T01:25:25.238Z,1007.3
2016-11-13T01:26:25.250Z,1007.25
2016-11-13T01:27:25.262Z,1007.26
2016-11-13T01:28:25.276Z,1007.23
2016-11-13T01:29:25.285Z,1007.22
2016-11-13T01:30:25.296Z,1007.19
2016-11-13T01:31:25.310Z,1007.21
2016-11-13T01:32:25.320Z,1007.16
2016-11-13T01:33:25.331Z,1007.19
2016-11-13T01:34:25.344Z,1007.16
2016-11-13T01:35:25.357Z,1007.16
2016-11-13T01:36:25.368Z,1007.2
2016-11-13T01:37:25.379Z,1007.17
2016-11-13T01:38:25.389Z,1007.16
2016-11-13T01:39:25.402Z,1007.16
2016-11-13T01:40:25.413Z,1007.16
2016-11-13T01:41:25.421Z,1007.14
2016-11-13T01:42:25.435Z,1007.18
2016-11-13T01:43:25.447Z,1007.12
2016-11-13T01:44:25.459Z,1007.16
2016-11-13T01:45:25.472Z,1007.17
2016-11-13T01:46:25.481Z,1007.23
2016-11-13T01:47:25.495Z,1007.18
2016-11-13T01:48:25.508Z,1007.22
2016-11-13T01:49:25.516Z,1007.15
2016-11-13T01:50:25.530Z,1007.21
2016-11-13T01:51:25.541Z,1007.16
2016-11-13T01:52:25.553Z,1007.14
2016-11-13T01:53:25.564Z,1007.16
2016-11-13T01:54:25.576Z,1007.19
2016-11-13T01:55:25.585Z,1007.15
2016-11-13T01:56:25.596Z,1007.11
2016-11-13T01:57:25.613Z,1007.09
2016-11-13T01:58:25.621Z,1007.08
2016-11-13T01:59:25.633Z,1007.1
2016-11-13T02:00:25.647Z,1007.1
2016-11-13T02:01:25.653Z,1007.09
2016-11-13T02:02:25.669Z,1007.08
2016-11-13T02:03:25.675Z,1007.12
2016-11-13T02:04:25.689Z,1007.07
2016-11-13T02:05:25.703Z,1007.07
2016-11-13T02:06:25.710Z,1007.1
2016-11-13T02:07:25.725Z,1007.09
2016-11-13T02:08:25.737Z,1007.09
2016-11-13T02:09:25.748Z,1007.11
2016-11-13T02:10:25.759Z,1007.12
2016-11-13T02:11:25.773Z,1007.15
2016-11-13T02:12:25.783Z,1007.1
2016-11-13T02:13:25.792Z,1007.08
2016-11-13T02:14:25.806Z,1007.11
2016-11-13T02:15:25.817Z,1007.11
2016-11-13T02:16:25.828Z,1007.05
2016-11-13T02:17:25.841Z,1007.04
2016-11-13T02:18:25.853Z,1007
2016-11-13T02:19:25.866Z,1007.04
2016-11-13T02:20:25.878Z,1007.05
2016-11-13T02:21:25.889Z,1007
2016-11-13T02:22:25.901Z,1007.03
2016-11-13T02:23:25.911Z,1007.03
2016-11-13T02:24:25.920Z,1006.98
2016-11-13T02:25:25.936Z,1006.96
2016-11-13T02:26:25.945Z,1006.96
2016-11-13T02:27:25.954Z,1006.94
2016-11-13T02:28:25.963Z,1007.04
2016-11-13T02:29:25.980Z,1006.99
2016-11-13T02:30:25.993Z,1006.99
2016-11-13T02:31:25.999Z,1007.05
2016-11-13T02:32:26.013Z,1007.04
2016-11-13T02:33:26.026Z,1007.06
2016-11-13T02:34:26.035Z,1007.12
2016-11-13T02:35:26.047Z,1007.14
2016-11-13T02:36:26.059Z,1007.08
2016-11-13T02:37:26.069Z,1007.06
2016-11-13T02:38:26.084Z,1007.07
2016-11-13T02:39:26.094Z,1007.07
2016-11-13T02:40:26.107Z,1007.13
2016-11-13T02:41:26.119Z,1007.15
2016-11-13T02:42:26.127Z,1007.06
2016-11-13T02:43:26.137Z,1007.06
2016-11-13T02:44:26.149Z,1007.1
2016-11-13T02:45:26.164Z,1007.11
2016-11-13T02:46:26.172Z,1007.13
2016-11-13T02:47:26.185Z,1007.14
2016-11-13T02:48:26.198Z,1007.18
2016-11-13T02:49:26.208Z,1007.25
2016-11-13T02:50:26.222Z,1007.18
2016-11-13T02:51:26.232Z,1007.26
2016-11-13T02:52:26.241Z,1007.22
2016-11-13T02:53:26.252Z,1007.23
2016-11-13T02:54:26.261Z,1007.24
2016-11-13T02:55:26.278Z,1007.34
2016-11-13T02:56:26.287Z,1007.26
2016-11-13T02:57:26.301Z,1007.25
2016-11-13T02:58:26.313Z,1007.31
2016-11-13T02:59:26.326Z,1007.27
2016-11-13T03:00:26.333Z,1007.3
2016-11-13T03:01:26.348Z,1007.29
2016-11-13T03:02:26.360Z,1007.33
2016-11-13T03:03:26.368Z,1007.31
2016-11-13T03:04:26.381Z,1007.28
2016-11-13T03:05:26.395Z,1007.28
2016-11-13T03:06:26.404Z,1007.31
2016-11-13T03:07:26.418Z,1007.35
2016-11-13T03:08:26.426Z,1007.32
2016-11-13T03:09:26.436Z,1007.33
2016-11-13T03:10:26.450Z,1007.28
2016-11-13T03:11:26.461Z,1007.3
2016-11-13T03:12:26.471Z,1007.33
2016-11-13T03:13:26.488Z,1007.31
2016-11-13T03:14:26.497Z,1007.31
2016-11-13T03:15:26.508Z,1007.34
2016-11-13T03:16:26.520Z,1007.33
2016-11-13T03:17:26.533Z,1007.35
2016-11-13T03:18:26.543Z,1007.36
2016-11-13T03:19:26.553Z,1007.39
2016-11-13T03:20:26.563Z,1007.36
2016-11-13T03:21:26.576Z,1007.37
2016-11-13T03:22:26.592Z,1007.39
2016-11-13T03:23:26.599Z,1007.41
2016-11-13T03:24:26.614Z,1007.43
2016-11-13T03:25:26.624Z,1007.44
2016-11-13T03:26:26.633Z,1007.4
2016-11-13T03:27:26.645Z,1007.43
2016-11-13T03:28:26.660Z,1007.42
2016-11-13T03:29:26.672Z,1007.42
2016-11-13T03:30:26.678Z,1007.39
2016-11-13T03:31:26.694Z,1007.35
2016-11-13T03:32:26.706Z,1007.36
2016-11-13T03:33:26.720Z,1007.39
2016-11-13T03:34:26.726Z,1007.37
2016-11-13T03:35:26.744Z,1007.36
2016-11-13T03:36:26.750Z,1007.31
2016-11-13T03:37:26.762Z,1007.31
2016-11-13T03:38:26.777Z,1007.33
2016-11-13T03:39:26.783Z,1007.35
2016-11-13T03:40:26.796Z,1007.36
2016-11-13T03:41:26.804Z,1007.33
2016-11-13T03:42:26.821Z,1007.35
2016-11-13T03:43:26.835Z,1007.35
2016-11-13T03:44:26.843Z,1007.36
2016-11-13T03:45:26.856Z,1007.4
2016-11-13T03:46:26.867Z,1007.34
2016-11-13T03:47:26.875Z,1007.31
2016-11-13T03:48:26.889Z,1007.35
2016-11-13T03:49:26.904Z,1007.39
2016-11-13T03:50:26.916Z,1007.42
2016-11-13T03:51:26.926Z,1007.39
2016-11-13T03:52:26.932Z,1007.36
2016-11-13T03:53:26.946Z,1007.41
2016-11-13T03:54:26.961Z,1007.37
2016-11-13T03:55:26.970Z,1007.4
2016-11-13T03:56:26.984Z,1007.38
2016-11-13T03:57:26.994Z,1007.38
2016-11-13T03:58:27.008Z,1007.4
2016-11-13T03:59:27.018Z,1007.39
2016-11-13T04:01:27.049Z,1007.37
2016-11-13T04:02:27.060Z,1007.37
2016-11-13T04:03:27.071Z,1007.32
2016-11-13T04:04:27.082Z,1007.31
2016-11-13T04:05:27.093Z,1007.31
2016-11-13T04:06:27.105Z,1007.35
2016-11-13T04:07:27.117Z,1007.34
2016-11-13T04:08:27.123Z,1007.39
2016-11-13T04:09:27.137Z,1007.43
2016-11-13T04:10:27.153Z,1007.39
2016-11-13T04:11:27.159Z,1007.45
2016-11-13T04:12:27.173Z,1007.42
2016-11-13T04:13:27.183Z,1007.43
2016-11-13T04:14:27.195Z,1007.41
2016-11-13T04:15:27.210Z,1007.46
2016-11-13T04:16:27.218Z,1007.4
2016-11-13T04:17:27.231Z,1007.43
2016-11-13T04:18:27.245Z,1007.46
2016-11-13T04:19:27.253Z,1007.45
2016-11-13T04:20:27.263Z,1007.41
2016-11-13T04:21:27.276Z,1007.37
2016-11-13T04:22:27.285Z,1007.32
2016-11-13T04:23:27.299Z,1007.38
2016-11-13T04:24:27.311Z,1007.39
2016-11-13T04:25:27.322Z,1007.39
2016-11-13T04:26:27.336Z,1007.38
2016-11-13T04:27:27.344Z,1007.42
2016-11-13T04:28:27.359Z,1007.48
2016-11-13T04:29:27.372Z,1007.47
2016-11-13T04:30:27.380Z,1007.48
2016-11-13T04:31:27.391Z,1007.46
2016-11-13T04:32:27.404Z,1007.56
2016-11-13T04:33:27.417Z,1007.53
2016-11-13T04:34:27.426Z,1007.54
2016-11-13T04:35:27.437Z,1007.61
2016-11-13T04:36:27.448Z,1007.59
2016-11-13T04:37:27.462Z,1007.62
2016-11-13T04:38:27.469Z,1007.66
2016-11-13T04:39:27.486Z,1007.61
2016-11-13T04:40:27.497Z,1007.65
2016-11-13T04:41:27.506Z,1007.63
2016-11-13T04:42:27.519Z,1007.67
2016-11-13T04:43:27.533Z,1007.67
2016-11-13T04:44:27.542Z,1007.68
2016-11-13T04:45:27.553Z,1007.66
2016-11-13T04:46:27.567Z,1007.65
2016-11-13T04:47:27.578Z,1007.7
2016-11-13T04:48:27.587Z,1007.65
2016-11-13T04:49:27.600Z,1007.69
2016-11-13T04:50:27.626Z,1007.7
2016-11-13T04:51:27.622Z,1007.67
2016-11-13T04:52:27.632Z,1007.7
2016-11-13T04:53:27.648Z,1007.68
2016-11-13T04:54:27.656Z,1007.73
2016-11-13T04:55:27.667Z,1007.67
2016-11-13T04:56:27.680Z,1007.69
2016-11-13T04:57:27.689Z,1007.67
2016-11-13T04:58:27.702Z,1007.73
2016-11-13T04:59:27.714Z,1007.76
2016-11-13T05:00:27.727Z,1007.72
2016-11-13T05:01:27.733Z,1007.69
2016-11-13T05:02:27.747Z,1007.69
2016-11-13T05:03:27.759Z,1007.64
2016-11-13T05:04:27.772Z,1007.6
2016-11-13T05:05:27.785Z,1007.55
2016-11-13T05:06:27.792Z,1007.6
2016-11-13T05:07:27.805Z,1007.58
2016-11-13T05:08:27.817Z,1007.53
2016-11-13T05:09:27.828Z,1007.58
2016-11-13T05:10:27.838Z,1007.58
2016-11-13T05:11:27.850Z,1007.57
2016-11-13T05:12:27.860Z,1007.54
2016-11-13T05:13:27.876Z,1007.55
2016-11-13T05:14:27.885Z,1007.58
2016-11-13T05:15:27.895Z,1007.6
2016-11-13T05:16:27.905Z,1007.62
2016-11-13T05:17:27.920Z,1007.64
2016-11-13T05:18:27.931Z,1007.63
2016-11-13T05:19:27.942Z,1007.64
2016-11-13T05:20:27.953Z,1007.65
2016-11-13T05:21:27.964Z,1007.66
2016-11-13T05:22:27.974Z,1007.68
2016-11-13T05:23:27.983Z,1007.65
2016-11-13T05:24:27.999Z,1007.73
2016-11-13T05:25:28.014Z,1007.65
2016-11-13T05:26:28.021Z,1007.7
2016-11-13T05:27:28.033Z,1007.7
2016-11-13T05:28:28.040Z,1007.71
2016-11-13T05:29:28.054Z,1007.72
2016-11-13T05:30:28.070Z,1007.69
2016-11-13T05:31:28.080Z,1007.75
2016-11-13T05:32:28.087Z,1007.7
2016-11-13T05:33:28.101Z,1007.66
2016-11-13T05:34:28.113Z,1007.74
2016-11-13T05:35:28.121Z,1007.73
2016-11-13T05:36:28.132Z,1007.72
2016-11-13T05:37:28.144Z,1007.7
2016-11-13T05:38:28.155Z,1007.66
2016-11-13T05:39:28.167Z,1007.65
2016-11-13T05:40:28.180Z,1007.67
2016-11-13T05:41:28.189Z,1007.61
2016-11-13T05:42:28.198Z,1007.62
2016-11-13T05:43:28.212Z,1007.6
2016-11-13T05:44:28.223Z,1007.62
2016-11-13T05:45:28.234Z,1007.61
2016-11-13T05:46:28.244Z,1007.58
2016-11-13T05:47:28.257Z,1007.67
2016-11-13T05:48:28.292Z,1007.68
2016-11-13T05:49:28.278Z,1007.64
2016-11-13T05:50:28.289Z,1007.61
2016-11-13T05:51:28.303Z,1007.63
2016-11-13T05:52:28.317Z,1007.64
2016-11-13T05:53:28.325Z,1007.63
2016-11-13T05:54:28.334Z,1007.65
2016-11-13T05:55:28.344Z,1007.67
2016-11-13T05:56:28.358Z,1007.64
2016-11-13T05:57:28.366Z,1007.73
2016-11-13T05:58:28.378Z,1007.72
2016-11-13T05:59:28.389Z,1007.68
2016-11-13T06:00:28.401Z,1007.72
2016-11-13T06:01:28.410Z,1007.73
2016-11-13T06:02:28.425Z,1007.72
2016-11-13T06:03:28.431Z,1007.7
2016-11-13T06:04:28.448Z,1007.72
2016-11-13T06:05:28.454Z,1007.73
2016-11-13T06:06:28.470Z,1007.73
2016-11-13T06:07:28.476Z,1007.66
2016-11-13T06:08:28.491Z,1007.72
2016-11-13T06:09:28.500Z,1007.79
2016-11-13T06:10:28.511Z,1007.8
2016-11-13T06:11:28.523Z,1007.75
2016-11-13T06:12:28.534Z,1007.76
2016-11-13T06:13:28.543Z,1007.75
2016-11-13T06:14:28.556Z,1007.74
2016-11-13T06:15:28.570Z,1007.74
2016-11-13T06:16:28.579Z,1007.75
2016-11-13T06:17:28.591Z,1007.74
2016-11-13T06:18:28.601Z,1007.72
2016-11-13T06:19:28.611Z,1007.74
2016-11-13T06:20:28.623Z,1007.75
2016-11-13T06:21:28.640Z,1007.75
2016-11-13T06:22:28.644Z,1007.79
2016-11-13T06:23:28.658Z,1007.77
2016-11-13T06:24:28.665Z,1007.75
2016-11-13T06:25:28.678Z,1007.82
2016-11-13T06:26:28.690Z,1007.81
2016-11-13T06:27:28.703Z,1007.78
2016-11-13T06:28:28.712Z,1007.82
2016-11-13T06:29:28.722Z,1007.88
2016-11-13T06:30:28.735Z,1007.86
2016-11-13T06:31:28.742Z,1007.86
2016-11-13T06:32:28.753Z,1007.98
2016-11-13T06:33:28.767Z,1007.94
2016-11-13T06:34:28.778Z,1008
2016-11-13T06:35:28.789Z,1008.04
2016-11-13T06:36:28.798Z,1008.04
2016-11-13T06:37:28.809Z,1008.05
2016-11-13T06:38:28.819Z,1008.08
2016-11-13T06:39:28.832Z,1008.11
2016-11-13T06:40:28.843Z,1008.12
2016-11-13T06:41:28.853Z,1008.13
2016-11-13T06:42:28.864Z,1008.14
2016-11-13T06:43:28.879Z,1008.14
2016-11-13T06:44:28.886Z,1008.1
2016-11-13T06:45:28.902Z,1008.17
2016-11-13T06:46:28.907Z,1008.14
2016-11-13T06:47:28.920Z,1008.15
2016-11-13T06:48:28.929Z,1008.16
2016-11-13T06:49:28.944Z,1008.21
2016-11-13T06:50:28.955Z,1008.22
2016-11-13T06:51:28.968Z,1008.23
2016-11-13T06:52:28.973Z,1008.19
2016-11-13T06:53:28.986Z,1008.21
2016-11-13T06:54:28.995Z,1008.16
2016-11-13T06:55:29.010Z,1008.21
2016-11-13T06:56:29.017Z,1008.17
2016-11-13T06:57:29.032Z,1008.2
2016-11-13T06:58:29.043Z,1008.23
2016-11-13T06:59:29.052Z,1008.24
2016-11-13T07:00:29.065Z,1008.16
2016-11-13T07:01:29.078Z,1008.19
2016-11-13T07:02:29.083Z,1008.25
2016-11-13T07:03:29.099Z,1008.23
2016-11-13T07:04:29.111Z,1008.27
2016-11-13T07:05:29.121Z,1008.22
2016-11-13T07:06:29.130Z,1008.25
2016-11-13T07:07:29.141Z,1008.25
2016-11-13T07:08:29.156Z,1008.24
2016-11-13T07:09:29.163Z,1008.3
2016-11-13T07:10:29.175Z,1008.32
2016-11-13T07:11:29.187Z,1008.31
2016-11-13T07:12:29.197Z,1008.25
2016-11-13T07:13:29.209Z,1008.33
2016-11-13T07:14:29.221Z,1008.32
2016-11-13T07:15:29.231Z,1008.3
2016-11-13T07:16:29.245Z,1008.29
2016-11-13T07:17:29.253Z,1008.34
2016-11-13T07:18:29.266Z,1008.35
2016-11-13T07:19:29.276Z,1008.35
2016-11-13T07:20:29.288Z,1008.34
2016-11-13T07:21:29.301Z,1008.38
2016-11-13T07:22:29.308Z,1008.35
2016-11-13T07:23:29.324Z,1008.35
2016-11-13T07:24:29.328Z,1008.39
2016-11-13T07:25:29.341Z,1008.42
2016-11-13T07:26:29.358Z,1008.43
2016-11-13T07:27:29.364Z,1008.43
2016-11-13T07:28:29.380Z,1008.46
2016-11-13T07:29:29.386Z,1008.51
2016-11-13T07:30:29.400Z,1008.51
2016-11-13T07:31:29.410Z,1008.46
2016-11-13T07:32:29.424Z,1008.46
2016-11-13T07:33:29.433Z,1008.52
2016-11-13T07:34:29.443Z,1008.48
2016-11-13T07:35:29.458Z,1008.56
2016-11-13T07:36:29.464Z,1008.58
2016-11-13T07:37:29.483Z,1008.59
2016-11-13T07:38:29.494Z,1008.6
2016-11-13T07:39:29.504Z,1008.64
2016-11-13T07:40:29.516Z,1008.69
2016-11-13T07:41:29.528Z,1008.69
2016-11-13T07:42:29.534Z,1008.65
2016-11-13T07:43:29.551Z,1008.67
2016-11-13T07:44:29.562Z,1008.72
2016-11-13T07:45:29.570Z,1008.72
2016-11-13T07:46:29.584Z,1008.75
2016-11-13T07:47:29.599Z,1008.77
2016-11-13T07:48:29.607Z,1008.76
2016-11-13T07:49:29.622Z,1008.72
2016-11-13T07:50:29.634Z,1008.8
2016-11-13T07:51:29.640Z,1008.75
2016-11-13T07:52:29.655Z,1008.72
2016-11-13T07:53:29.667Z,1008.79
2016-11-13T07:54:29.679Z,1008.7
2016-11-13T07:55:29.688Z,1008.85
2016-11-13T07:56:29.701Z,1008.78
2016-11-13T07:57:29.710Z,1008.85
2016-11-13T07:58:29.724Z,1008.85
2016-11-13T07:59:29.737Z,1008.88
2016-11-13T08:00:29.745Z,1008.87
2016-11-13T08:01:29.758Z,1008.82
2016-11-13T08:02:29.772Z,1008.85
2016-11-13T08:03:29.784Z,1008.84
2016-11-13T08:04:29.796Z,1008.86
2016-11-13T08:05:29.809Z,1008.84
2016-11-13T08:06:29.817Z,1008.89
2016-11-13T08:07:29.831Z,1008.88
2016-11-13T08:08:29.843Z,1008.85
2016-11-13T08:09:29.850Z,1008.92
2016-11-13T08:10:29.865Z,1008.9
2016-11-13T08:11:29.879Z,1008.92
2016-11-13T08:12:29.887Z,1008.92
2016-11-13T08:13:29.903Z,1008.95
2016-11-13T08:14:29.914Z,1008.96
2016-11-13T08:15:29.926Z,1008.97
2016-11-13T08:16:29.935Z,1008.94
2016-11-13T08:17:29.948Z,1008.94
2016-11-13T08:18:29.962Z,1008.96
2016-11-13T08:19:29.968Z,1008.94
2016-11-13T08:20:29.984Z,1009.03
2016-11-13T08:21:29.994Z,1008.92
2016-11-13T08:22:30.006Z,1008.91
2016-11-13T08:23:30.015Z,1008.94
2016-11-13T08:24:30.029Z,1008.97
2016-11-13T08:25:30.041Z,1008.97
2016-11-13T08:26:30.053Z,1008.95
2016-11-13T08:27:30.064Z,1008.99
2016-11-13T08:28:30.080Z,1008.97
2016-11-13T08:29:30.089Z,1008.98
2016-11-13T08:30:30.101Z,1008.94
2016-11-13T08:31:30.113Z,1008.95
2016-11-13T08:32:30.127Z,1008.95
2016-11-13T08:33:30.137Z,1008.98
2016-11-13T08:34:30.147Z,1008.98
2016-11-13T08:35:30.160Z,1009.01
2016-11-13T08:36:30.173Z,1008.98
2016-11-13T08:37:30.182Z,1009.02
2016-11-13T08:38:30.194Z,1009.1
2016-11-13T08:39:30.208Z,1009.07
2016-11-13T08:40:30.222Z,1009.11
2016-11-13T08:41:30.233Z,1009.12
2016-11-13T08:42:30.244Z,1009.13
2016-11-13T08:43:30.258Z,1009.2
2016-11-13T08:44:30.267Z,1009.14
2016-11-13T08:45:30.278Z,1009.13
2016-11-13T08:46:30.290Z,1009.18
2016-11-13T08:47:30.303Z,1009.13
2016-11-13T08:48:30.315Z,1009.16
2016-11-13T08:49:30.329Z,1009.11
2016-11-13T08:50:30.342Z,1009.15
2016-11-13T08:51:30.350Z,1009.12
2016-11-13T08:52:30.365Z,1009.18
2016-11-13T08:53:30.376Z,1009.15
2016-11-13T08:54:30.393Z,1009.16
2016-11-13T08:55:30.398Z,1009.13
2016-11-13T08:56:30.408Z,1009.12
2016-11-13T08:57:30.421Z,1009.19
2016-11-13T08:58:30.438Z,1009.18
2016-11-13T08:59:30.446Z,1009.21
2016-11-13T09:00:30.460Z,1009.23
2016-11-13T09:01:30.474Z,1009.25
2016-11-13T09:02:30.484Z,1009.27
2016-11-13T09:03:30.491Z,1009.26
2016-11-13T09:04:30.508Z,1009.35
2016-11-13T09:05:30.517Z,1009.27
2016-11-13T09:06:30.530Z,1009.3
2016-11-13T09:07:30.543Z,1009.24
2016-11-13T09:08:30.553Z,1009.3
2016-11-13T09:09:30.568Z,1009.27
2016-11-13T09:10:30.578Z,1009.28
2016-11-13T09:11:30.592Z,1009.28
2016-11-13T09:12:30.603Z,1009.3
2016-11-13T09:13:30.616Z,1009.32
2016-11-13T09:14:30.627Z,1009.32
2016-11-13T09:15:30.640Z,1009.33
2016-11-13T09:16:30.655Z,1009.33
2016-11-13T09:17:30.665Z,1009.37
2016-11-13T09:18:30.676Z,1009.38
2016-11-13T09:19:30.688Z,1009.35
2016-11-13T09:20:30.703Z,1009.42
2016-11-13T09:21:30.715Z,1009.42
2016-11-13T09:22:30.724Z,1009.37
2016-11-13T09:23:30.738Z,1009.46
2016-11-13T09:24:30.749Z,1009.47
2016-11-13T09:25:30.768Z,1009.47
2016-11-13T09:26:30.781Z,1009.48
2016-11-13T09:27:30.791Z,1009.46
2016-11-13T09:28:30.799Z,1009.5
2016-11-13T09:29:30.816Z,1009.52
2016-11-13T09:30:30.822Z,1009.52
2016-11-13T09:31:30.837Z,1009.53
2016-11-13T09:32:30.851Z,1009.49
2016-11-13T09:33:30.860Z,1009.51
2016-11-13T09:34:30.875Z,1009.55
2016-11-13T09:35:30.889Z,1009.57
2016-11-13T09:36:30.897Z,1009.54
2016-11-13T09:37:30.915Z,1009.6
2016-11-13T09:38:30.923Z,1009.63
2016-11-13T09:39:30.935Z,1009.59
2016-11-13T09:40:30.948Z,1009.64
2016-11-13T09:41:30.960Z,1009.62
2016-11-13T09:42:30.975Z,1009.67
2016-11-13T09:43:30.990Z,1009.59
2016-11-13T09:44:31.001Z,1009.61
2016-11-13T09:45:31.009Z,1009.58
2016-11-13T09:46:31.023Z,1009.55
2016-11-13T09:47:31.039Z,1009.62
2016-11-13T09:48:31.051Z,1009.58
2016-11-13T09:49:31.062Z,1009.6
2016-11-13T09:50:31.073Z,1009.57
2016-11-13T09:51:31.088Z,1009.59
2016-11-13T09:52:31.103Z,1009.56
2016-11-13T09:53:31.112Z,1009.64
2016-11-13T09:54:31.125Z,1009.62
2016-11-13T09:55:31.138Z,1009.62
2016-11-13T09:56:31.154Z,1009.61
2016-11-13T09:57:31.161Z,1009.63
2016-11-13T09:58:31.176Z,1009.6
2016-11-13T09:59:31.187Z,1009.62
2016-11-13T10:00:31.201Z,1009.64
2016-11-13T10:01:31.221Z,1009.63
2016-11-13T10:02:31.228Z,1009.66
2016-11-13T10:03:31.239Z,1009.62
2016-11-13T10:04:31.251Z,1009.62
2016-11-13T10:05:31.264Z,1009.63
2016-11-13T10:06:31.277Z,1009.63
2016-11-13T10:07:31.289Z,1009.61
2016-11-13T10:08:31.301Z,1009.66
2016-11-13T10:09:31.313Z,1009.59
2016-11-13T10:10:31.326Z,1009.55
2016-11-13T10:11:31.340Z,1009.65
2016-11-13T10:12:31.351Z,1009.64
2016-11-13T10:13:31.364Z,1009.6
2016-11-13T10:14:31.380Z,1009.58
2016-11-13T10:15:31.391Z,1009.57
2016-11-13T10:16:31.403Z,1009.57
2016-11-13T10:17:31.418Z,1009.54
2016-11-13T10:18:31.429Z,1009.54
2016-11-13T10:19:31.439Z,1009.6
2016-11-13T10:20:31.454Z,1009.61
2016-11-13T10:21:31.464Z,1009.6
2016-11-13T10:22:31.482Z,1009.67
2016-11-13T10:23:31.494Z,1009.65
2016-11-13T10:24:31.506Z,1009.68
2016-11-13T10:25:31.521Z,1009.64
2016-11-13T10:26:31.533Z,1009.66
2016-11-13T10:27:31.541Z,1009.67
2016-11-13T10:28:31.559Z,1009.65
2016-11-13T10:29:31.569Z,1009.68
2016-11-13T10:30:31.584Z,1009.67
2016-11-13T10:31:31.598Z,1009.66
2016-11-13T10:32:31.609Z,1009.67
2016-11-13T10:33:31.620Z,1009.69
2016-11-13T10:34:31.638Z,1009.7
2016-11-13T10:35:31.648Z,1009.68
2016-11-13T10:36:31.662Z,1009.63
2016-11-13T10:37:31.672Z,1009.64
2016-11-13T10:38:31.684Z,1009.64
2016-11-13T10:39:31.699Z,1009.62
2016-11-13T10:40:31.711Z,1009.61
2016-11-13T10:41:31.726Z,1009.64
2016-11-13T10:42:31.740Z,1009.62
2016-11-13T10:43:31.751Z,1009.63
2016-11-13T10:44:31.765Z,1009.63
2016-11-13T10:45:31.775Z,1009.6
2016-11-13T10:46:31.791Z,1009.71
2016-11-13T10:47:31.803Z,1009.64
2016-11-13T10:48:31.815Z,1009.62
2016-11-13T10:49:31.828Z,1009.7
2016-11-13T10:50:31.843Z,1009.67
2016-11-13T10:51:31.855Z,1009.69
2016-11-13T10:52:31.870Z,1009.75
2016-11-13T10:53:31.883Z,1009.76
2016-11-13T10:54:31.893Z,1009.75
2016-11-13T10:55:31.907Z,1009.75
2016-11-13T10:56:31.919Z,1009.69
2016-11-13T10:57:31.931Z,1009.73
2016-11-13T10:58:31.946Z,1009.75
2016-11-13T10:59:31.962Z,1009.74
2016-11-13T11:00:31.975Z,1009.75
2016-11-13T11:01:31.987Z,1009.7
2016-11-13T11:02:32.000Z,1009.72
2016-11-13T11:03:32.010Z,1009.72
2016-11-13T11:04:32.023Z,1009.7
2016-11-13T11:05:32.035Z,1009.66
2016-11-13T11:06:32.053Z,1009.66
2016-11-13T11:07:32.065Z,1009.63
2016-11-13T11:08:32.078Z,1009.61
2016-11-13T11:09:32.093Z,1009.59
2016-11-13T11:10:32.104Z,1009.6
2016-11-13T11:11:32.120Z,1009.59
2016-11-13T11:12:32.134Z,1009.57
2016-11-13T11:13:32.144Z,1009.56
2016-11-13T11:14:32.157Z,1009.56
2016-11-13T11:15:32.170Z,1009.56
2016-11-13T11:16:32.186Z,1009.56
2016-11-13T11:17:32.196Z,1009.56
2016-11-13T11:18:32.212Z,1009.54
2016-11-13T11:19:32.228Z,1009.55
2016-11-13T11:20:32.241Z,1009.48
2016-11-13T11:21:32.251Z,1009.55
2016-11-13T11:22:32.267Z,1009.52
2016-11-13T11:23:32.280Z,1009.56
2016-11-13T11:24:32.292Z,1009.52
2016-11-13T11:25:32.303Z,1009.54
2016-11-13T11:26:32.321Z,1009.55
2016-11-13T11:27:32.332Z,1009.51
2016-11-13T11:28:32.344Z,1009.55
2016-11-13T11:29:32.356Z,1009.58
2016-11-13T11:30:32.368Z,1009.6
2016-11-13T11:31:32.385Z,1009.59
2016-11-13T11:32:32.399Z,1009.52
2016-11-13T11:33:32.412Z,1009.59
2016-11-13T11:34:32.423Z,1009.58
2016-11-13T11:35:32.440Z,1009.6
2016-11-13T11:36:32.449Z,1009.62
2016-11-13T11:37:32.464Z,1009.59
2016-11-13T11:38:32.480Z,1009.57
2016-11-13T11:39:32.488Z,1009.6
2016-11-13T11:40:32.502Z,1009.62
2016-11-13T11:41:32.518Z,1009.67
2016-11-13T11:42:32.529Z,1009.7
2016-11-13T11:43:32.541Z,1009.67
2016-11-13T11:44:32.554Z,1009.71
2016-11-13T11:45:32.568Z,1009.75
2016-11-13T11:46:32.582Z,1009.75
2016-11-13T11:47:32.593Z,1009.71
2016-11-13T11:48:32.610Z,1009.76
2016-11-13T11:49:32.624Z,1009.74
2016-11-13T11:50:32.643Z,1009.7
2016-11-13T11:51:32.651Z,1009.67
2016-11-13T11:52:32.665Z,1009.68
2016-11-13T11:53:32.674Z,1009.65
2016-11-13T11:54:32.687Z,1009.63
2016-11-13T11:55:32.700Z,1009.64
2016-11-13T11:56:32.717Z,1009.58
2016-11-13T11:57:32.726Z,1009.59
2016-11-13T11:58:32.740Z,1009.64
2016-11-13T11:59:32.757Z,1009.63
2016-11-13T12:00:32.768Z,1009.63
2016-11-13T12:01:32.782Z,1009.55
2016-11-13T12:02:32.795Z,1009.62
2016-11-13T12:03:32.808Z,1009.61
2016-11-13T12:04:32.821Z,1009.66
2016-11-13T12:05:32.836Z,1009.64
2016-11-13T12:06:32.850Z,1009.62
2016-11-13T12:07:32.867Z,1009.64
2016-11-13T12:08:32.880Z,1009.65
2016-11-13T12:09:32.889Z,1009.62